Parker, Colorado
Current Conditions -  °F | °C
As of 4:53 AM on Wednesday 28 Jan 2015 (Local Time) from KAPA Reporting Station
Few Clouds Few Clouds  
Wind Chill: 33°   Ceiling: Unl
Heat Index: 38°   Visibility: 10mi
Dew Point: 23°   Wind: 7mph
Humidity: 55%   Direction: 190°S
Pressure: 30.03"   Gusts: NA
Location:  39.52°N, 104.76°W
Report Text: KAPA 281153Z 19006KT 10SM FEW140 03/M05 A3003 RMK AO2 SLP141 T00331050 10083 20028 53003
Loading
Personal Weather Stations






























Interactive Weather Map New forecast layout! Learn more

10-Day Weather Forecast

Advertisements
Track Severe Weather on mobile